createdAt,value
2023-04-19T00:00:54.380Z,12.40
2023-04-19T00:03:24.868Z,12.60
2023-04-19T00:05:54.383Z,9.80
2023-04-19T00:08:23.886Z,12.30
2023-04-19T00:10:52.045Z,12.00
2023-04-19T00:13:20.633Z,13.10
2023-04-19T00:15:49.078Z,14.70
2023-04-19T00:18:17.174Z,13.50
2023-04-19T00:20:45.082Z,7.20
2023-04-19T00:23:13.171Z,12.30
2023-04-19T00:28:44.421Z,11.40
2023-04-19T00:31:12.667Z,13.50
2023-04-19T00:33:40.613Z,11.80
2023-04-19T00:36:09.934Z,10.60
2023-04-19T00:38:37.969Z,13.50
2023-04-19T00:41:05.905Z,14.00
2023-04-19T00:43:34.043Z,18.60
2023-04-19T00:46:02.072Z,13.00
2023-04-19T00:48:30.961Z,13.20
2023-04-19T00:50:58.878Z,11.60
2023-04-19T00:53:26.824Z,12.70
2023-04-19T00:55:55.112Z,13.10
2023-04-19T00:58:23.582Z,13.10
2023-04-19T01:00:51.830Z,10.20
2023-04-19T01:03:23.126Z,13.30
2023-04-19T01:05:52.753Z,13.20
2023-04-19T01:08:21.260Z,10.80
2023-04-19T01:10:49.274Z,12.00
2023-04-19T01:13:17.274Z,10.40
2023-04-19T01:15:45.474Z,16.10
2023-04-19T01:18:14.279Z,12.10
2023-04-19T01:20:43.972Z,9.20
2023-04-19T01:23:12.496Z,11.20
2023-04-19T01:25:40.411Z,10.90
2023-04-19T01:28:08.305Z,11.50
2023-04-19T01:30:36.944Z,14.50
2023-04-19T01:33:05.006Z,13.50
2023-04-19T01:35:34.168Z,12.20
2023-04-19T01:38:02.338Z,14.90
2023-04-19T01:40:30.427Z,11.70
2023-04-19T01:42:59.307Z,11.20
2023-04-19T01:45:27.598Z,10.90
2023-04-19T01:47:56.128Z,11.90
2023-04-19T01:50:24.118Z,11.10
2023-04-19T01:52:52.023Z,11.20
2023-04-19T01:55:19.943Z,14.90
2023-04-19T01:57:47.979Z,13.70
2023-04-19T02:00:18.060Z,18.20
2023-04-19T02:02:48.644Z,18.10
2023-04-19T02:05:16.887Z,18.20
2023-04-19T02:07:44.948Z,21.10
2023-04-19T02:10:12.830Z,10.40
2023-04-19T02:12:42.638Z,17.80
2023-04-19T02:15:10.709Z,18.20
2023-04-19T02:17:39.025Z,17.70
2023-04-19T02:20:09.120Z,16.10
2023-04-19T02:22:37.140Z,19.00
2023-04-19T02:25:05.678Z,14.20
2023-04-19T02:27:35.138Z,17.40
2023-04-19T02:30:03.092Z,17.60
2023-04-19T02:32:32.716Z,15.50
2023-04-19T02:35:01.108Z,16.80
2023-04-19T02:37:30.975Z,15.30
2023-04-19T02:39:59.004Z,18.40
2023-04-19T02:42:29.011Z,13.40
2023-04-19T02:44:57.173Z,11.30
2023-04-19T02:47:25.586Z,12.20
2023-04-19T02:49:53.511Z,12.10
2023-04-19T02:52:21.695Z,15.30
2023-04-19T02:54:49.639Z,12.70
2023-04-19T02:57:17.610Z,10.60
2023-04-19T02:59:46.090Z,15.30
2023-04-19T03:02:14.011Z,16.50
2023-04-19T03:04:43.653Z,17.20
2023-04-19T03:07:13.934Z,11.10
2023-04-19T03:09:42.355Z,12.50
2023-04-19T03:12:10.389Z,11.50
2023-04-19T03:14:39.548Z,10.40
2023-04-19T03:17:07.521Z,14.00
2023-04-19T03:19:37.530Z,15.10
2023-04-19T03:22:06.318Z,10.00
2023-04-19T03:24:37.576Z,11.60
2023-04-19T03:27:16.413Z,14.50
2023-04-19T03:29:46.671Z,8.40
2023-04-19T03:34:44.222Z,15.60
2023-04-19T03:37:14.015Z,17.80
2023-04-19T03:39:42.597Z,16.20
2023-04-19T03:42:14.234Z,16.80
2023-04-19T03:44:50.642Z,13.60
2023-04-19T03:47:18.995Z,21.90
2023-04-19T03:49:48.892Z,17.10
2023-04-19T03:52:18.194Z,13.80
2023-04-19T03:54:46.414Z,14.10
2023-04-19T03:57:26.353Z,9.90
2023-04-19T03:59:54.852Z,10.90
2023-04-19T04:02:22.985Z,12.60
2023-04-19T04:04:55.293Z,10.10
2023-04-19T04:07:24.743Z,10.90
2023-04-19T04:09:53.059Z,11.20
2023-04-19T04:12:20.989Z,9.30
2023-04-19T04:14:49.602Z,15.90
2023-04-19T04:17:17.640Z,9.80
2023-04-19T04:19:45.785Z,16.20
2023-04-19T04:22:14.278Z,12.40
2023-04-19T04:24:44.111Z,14.00
2023-04-19T04:27:24.257Z,13.70
2023-04-19T04:29:54.773Z,10.20
2023-04-19T04:32:23.985Z,10.20
2023-04-19T04:34:55.377Z,10.50
2023-04-19T04:37:31.227Z,10.00
2023-04-19T04:40:01.313Z,12.20
2023-04-19T04:42:31.522Z,12.90
2023-04-19T04:45:01.647Z,14.10
2023-04-19T04:47:32.466Z,9.00
2023-04-19T04:52:30.860Z,9.50
2023-04-19T04:55:28.308Z,11.50
2023-04-19T04:57:56.437Z,10.40
2023-04-19T05:00:31.051Z,8.00
2023-04-19T05:03:04.894Z,16.10
2023-04-19T05:05:36.317Z,10.40
2023-04-19T05:08:04.817Z,13.60
2023-04-19T05:10:33.205Z,7.10
2023-04-19T05:13:05.564Z,11.90
2023-04-19T05:15:34.672Z,15.40
2023-04-19T05:18:02.720Z,15.70
2023-04-19T05:20:31.019Z,12.10
2023-04-19T05:23:13.703Z,14.60
2023-04-19T05:25:42.450Z,16.60
2023-04-19T05:28:11.303Z,15.90
2023-04-19T05:33:34.864Z,22.80
2023-04-19T05:36:02.974Z,22.70
2023-04-19T05:38:31.226Z,25.40
2023-04-19T05:40:59.756Z,25.90
2023-04-19T05:43:27.662Z,27.40
2023-04-19T05:45:56.375Z,21.20
2023-04-19T05:48:25.648Z,14.30
2023-04-19T05:51:01.065Z,19.70
2023-04-19T05:53:57.447Z,24.00
2023-04-19T05:56:26.320Z,17.10
2023-04-19T05:58:56.262Z,19.70
2023-04-19T06:01:24.368Z,13.10
2023-04-19T06:03:53.346Z,25.50
2023-04-19T06:06:22.636Z,28.00
2023-04-19T06:08:52.028Z,23.40
2023-04-19T06:11:31.452Z,20.70
2023-04-19T06:14:06.677Z,30.20
2023-04-19T06:16:34.864Z,22.90
2023-04-19T06:19:03.630Z,13.70
2023-04-19T06:21:31.958Z,13.40
2023-04-19T06:24:00.739Z,10.50
2023-04-19T06:26:28.906Z,20.20
2023-04-19T06:28:56.938Z,13.10
2023-04-19T06:31:24.983Z,15.60
2023-04-19T06:33:52.918Z,14.00
2023-04-19T06:36:20.828Z,20.70
2023-04-19T06:38:50.054Z,11.00
2023-04-19T06:41:18.428Z,16.10
2023-04-19T06:43:46.864Z,10.80
2023-04-19T06:46:15.933Z,17.80
2023-04-19T06:48:44.194Z,11.00
2023-04-19T06:51:12.335Z,13.40
2023-04-19T06:53:40.395Z,12.80
2023-04-19T06:56:08.305Z,14.00
2023-04-19T06:58:36.928Z,16.70
2023-04-19T07:01:05.108Z,15.40
2023-04-19T07:03:33.259Z,10.60
2023-04-19T07:06:01.676Z,17.60
2023-04-19T07:08:42.462Z,15.30
2023-04-19T07:11:16.553Z,16.60
2023-04-19T07:13:44.613Z,12.70
2023-04-19T07:16:14.634Z,16.20
2023-04-19T07:18:43.890Z,13.20
2023-04-19T07:21:12.186Z,17.40
2023-04-19T07:23:40.269Z,8.50
2023-04-19T07:26:08.180Z,13.30
2023-04-19T07:28:36.142Z,11.20
2023-04-19T07:31:04.126Z,16.70
2023-04-19T07:33:32.430Z,17.30
2023-04-19T07:36:00.415Z,18.00
2023-04-19T07:38:29.353Z,12.30
2023-04-19T07:40:57.300Z,20.20
2023-04-19T07:43:26.146Z,13.40
2023-04-19T07:45:54.370Z,14.60
2023-04-19T07:48:22.377Z,22.60
2023-04-19T07:50:50.595Z,24.40
2023-04-19T07:53:18.697Z,22.20
2023-04-19T07:55:46.844Z,13.20
2023-04-19T07:58:14.987Z,13.20
2023-04-19T08:00:42.868Z,9.30
2023-04-19T08:03:11.086Z,13.50
2023-04-19T08:05:39.798Z,15.60
2023-04-19T08:08:07.843Z,17.30
2023-04-19T08:10:37.009Z,16.70
2023-04-19T08:13:06.576Z,20.20
2023-04-19T08:18:06.343Z,19.50
2023-04-19T08:20:34.628Z,16.20
2023-04-19T08:23:14.110Z,20.70
2023-04-19T08:25:49.309Z,21.70
2023-04-19T08:28:18.473Z,16.10
2023-04-19T08:30:46.484Z,13.90
2023-04-19T08:33:14.603Z,16.50
2023-04-19T08:35:42.549Z,20.70
2023-04-19T08:38:13.509Z,17.70
2023-04-19T08:40:45.972Z,21.00
2023-04-19T08:43:13.905Z,20.80
2023-04-19T08:45:41.832Z,28.10
2023-04-19T08:48:11.854Z,23.90
2023-04-19T08:50:55.829Z,12.80
2023-04-19T08:53:29.808Z,22.20
2023-04-19T08:58:51.917Z,22.30
2023-04-19T09:04:03.378Z,27.10
2023-04-19T09:06:38.882Z,27.60
2023-04-19T09:09:35.354Z,23.80
2023-04-19T09:12:17.750Z,20.00
2023-04-19T09:17:21.498Z,17.70
2023-04-19T09:19:49.693Z,18.80
2023-04-19T09:22:18.806Z,23.40
2023-04-19T09:25:14.561Z,30.10
2023-04-19T09:27:36.916Z,21.80
2023-04-19T09:30:06.687Z,23.80
2023-04-19T09:32:48.835Z,21.40
2023-04-19T09:35:17.475Z,19.60
2023-04-19T09:38:05.410Z,26.40
2023-04-19T09:40:35.332Z,23.90
2023-04-19T09:43:23.156Z,26.50
2023-04-19T09:45:51.702Z,32.40
2023-04-19T09:48:19.836Z,34.50
2023-04-19T09:50:59.027Z,37.60
2023-04-19T09:53:32.853Z,36.20
2023-04-19T09:56:02.975Z,55.50
2023-04-19T09:58:42.529Z,28.80
2023-04-19T10:01:17.424Z,31.90
2023-04-19T10:03:46.589Z,26.00
2023-04-19T10:08:51.471Z,36.80
2023-04-19T10:11:22.034Z,40.60
2023-04-19T10:13:54.830Z,39.50
2023-04-19T10:16:22.743Z,22.40
2023-04-19T10:18:51.328Z,35.40
2023-04-19T10:21:19.709Z,26.70
2023-04-19T10:23:47.750Z,30.90
2023-04-19T10:26:16.100Z,26.10
2023-04-19T10:28:44.206Z,31.40
2023-04-19T10:31:16.090Z,27.90
2023-04-19T10:33:44.377Z,34.00
2023-04-19T10:36:15.046Z,30.30
2023-04-19T10:38:44.762Z,39.00
2023-04-19T10:41:16.991Z,24.70
2023-04-19T10:44:08.692Z,41.20
2023-04-19T10:46:38.127Z,40.90
2023-04-19T10:49:06.315Z,38.60
2023-04-19T10:51:44.362Z,55.80
2023-04-19T10:54:32.516Z,61.70
2023-04-19T10:57:06.762Z,42.50
2023-04-19T10:59:35.584Z,45.90
2023-04-19T11:02:05.051Z,36.40
2023-04-19T11:04:33.354Z,48.00
2023-04-19T11:07:05.527Z,38.90
2023-04-19T11:09:42.256Z,54.10
2023-04-19T11:12:21.059Z,36.80
2023-04-19T11:14:53.522Z,42.20
2023-04-19T11:17:27.139Z,34.70
2023-04-19T11:20:09.415Z,36.00
2023-04-19T11:22:42.767Z,34.80
2023-04-19T11:25:18.215Z,39.90
2023-04-19T11:27:51.042Z,41.40
2023-04-19T11:30:28.311Z,35.00
2023-04-19T11:32:56.762Z,35.70
2023-04-19T11:35:26.313Z,24.90
2023-04-19T11:37:55.205Z,32.20
2023-04-19T11:40:24.533Z,37.10
2023-04-19T11:42:57.454Z,41.90
2023-04-19T11:45:35.457Z,32.20
2023-04-19T11:48:07.895Z,46.70
2023-04-19T11:50:42.642Z,42.60
2023-04-19T11:53:12.459Z,42.80
2023-04-19T11:55:52.139Z,30.90
2023-04-19T11:58:25.320Z,38.00
2023-04-19T12:00:53.375Z,43.70
2023-04-19T12:03:26.016Z,54.40
2023-04-19T12:05:58.854Z,40.80
2023-04-19T12:08:32.131Z,49.50
2023-04-19T12:11:00.463Z,46.40
2023-04-19T12:13:29.602Z,41.40
2023-04-19T12:15:57.485Z,39.30
2023-04-19T12:18:25.824Z,45.40
2023-04-19T12:20:54.056Z,36.10
2023-04-19T12:23:22.281Z,43.20
2023-04-19T12:25:53.422Z,50.40
2023-04-19T12:28:21.400Z,46.70
2023-04-19T12:30:49.366Z,41.40
2023-04-19T12:33:17.477Z,47.80
2023-04-19T12:35:47.863Z,53.50
2023-04-19T12:38:17.506Z,53.80
2023-04-19T12:40:45.520Z,59.60
2023-04-19T12:45:27.010Z,49.80
2023-04-19T12:47:54.960Z,57.50
2023-04-19T12:50:22.875Z,70.40
2023-04-19T12:52:51.930Z,62.10
2023-04-19T12:55:22.776Z,64.10
2023-04-19T12:57:51.424Z,57.80
2023-04-19T13:00:20.128Z,63.60
2023-04-19T13:02:48.871Z,54.30
2023-04-19T13:05:17.136Z,56.80
2023-04-19T13:07:45.131Z,64.50
2023-04-19T13:10:13.190Z,60.30
2023-04-19T13:12:41.906Z,54.90
2023-04-19T13:15:10.350Z,50.40
2023-04-19T13:17:38.633Z,43.90
2023-04-19T13:20:07.786Z,36.00
2023-04-19T13:22:36.470Z,62.00
2023-04-19T13:25:05.494Z,45.40
2023-04-19T13:27:34.693Z,58.50
2023-04-19T13:30:02.736Z,48.70
2023-04-19T13:32:30.912Z,46.30
2023-04-19T13:34:58.790Z,50.90
2023-04-19T13:37:27.891Z,42.20
2023-04-19T13:40:06.973Z,38.30
2023-04-19T13:42:43.234Z,59.20
2023-04-19T13:45:11.794Z,49.60
2023-04-19T13:47:40.227Z,39.10
2023-04-19T13:50:08.596Z,40.10
2023-04-19T13:52:36.797Z,44.80
2023-04-19T13:55:05.162Z,44.40
2023-04-19T13:57:33.176Z,49.20
2023-04-19T14:00:01.033Z,41.90
2023-04-19T14:02:30.141Z,45.00
2023-04-19T14:04:59.660Z,50.90
2023-04-19T14:07:27.629Z,51.90
2023-04-19T14:09:56.635Z,42.20
2023-04-19T14:12:24.792Z,63.30
2023-04-19T14:14:53.781Z,41.50
2023-04-19T14:17:21.819Z,54.70
2023-04-19T14:19:49.786Z,42.50
2023-04-19T14:22:18.012Z,43.80
2023-04-19T14:24:46.282Z,55.30
2023-04-19T14:27:14.295Z,33.20
2023-04-19T14:29:42.202Z,43.60
2023-04-19T14:32:24.043Z,49.90
2023-04-19T14:34:55.876Z,48.50
2023-04-19T14:37:24.601Z,48.30
2023-04-19T14:39:52.864Z,43.60
2023-04-19T14:42:22.907Z,44.40
2023-04-19T14:44:52.108Z,34.20
2023-04-19T14:47:21.002Z,47.10
2023-04-19T14:49:49.131Z,49.10
2023-04-19T14:52:17.175Z,41.30
2023-04-19T14:54:45.496Z,44.40
2023-04-19T14:57:14.412Z,37.70
2023-04-19T14:59:42.986Z,30.40
2023-04-19T15:02:11.436Z,50.90
2023-04-19T15:04:41.347Z,32.90
2023-04-19T15:07:09.968Z,50.80
2023-04-19T15:09:38.660Z,47.90
2023-04-19T15:12:06.856Z,40.30
2023-04-19T15:14:34.920Z,40.30
2023-04-19T15:17:02.880Z,35.10
2023-04-19T15:19:30.975Z,41.50
2023-04-19T15:21:58.933Z,50.50
2023-04-19T15:24:26.826Z,45.60
2023-04-19T15:26:54.734Z,44.70
2023-04-19T15:29:22.712Z,46.10
2023-04-19T15:31:50.743Z,54.80
2023-04-19T15:34:18.831Z,46.10
2023-04-19T15:36:47.259Z,64.70
2023-04-19T15:39:15.502Z,50.50
2023-04-19T15:41:43.638Z,41.40
2023-04-19T15:44:11.802Z,59.10
2023-04-19T15:46:39.764Z,39.10
2023-04-19T15:49:07.739Z,34.90
2023-04-19T15:51:36.063Z,43.40
2023-04-19T15:54:03.999Z,41.80
2023-04-19T15:56:32.454Z,41.90
2023-04-19T15:59:00.435Z,43.00
2023-04-19T16:01:28.858Z,43.80
2023-04-19T16:03:56.972Z,35.50
2023-04-19T16:06:25.223Z,31.50
2023-04-19T16:08:53.672Z,35.50
2023-04-19T16:11:22.009Z,31.70
2023-04-19T16:13:50.014Z,34.90
2023-04-19T16:16:18.391Z,45.40
2023-04-19T16:18:47.318Z,38.50
2023-04-19T16:21:15.326Z,27.90
2023-04-19T16:23:44.314Z,34.20
2023-04-19T16:26:12.808Z,33.10
2023-04-19T16:28:41.104Z,49.60
2023-04-19T16:31:09.282Z,29.20
2023-04-19T16:33:37.331Z,46.20
2023-04-19T16:36:05.598Z,58.10
2023-04-19T16:38:33.746Z,54.20
2023-04-19T16:41:04.666Z,46.50
2023-04-19T16:43:33.139Z,42.30
2023-04-19T16:46:01.911Z,49.00
2023-04-19T16:48:29.911Z,50.80
2023-04-19T16:50:57.888Z,42.80
2023-04-19T16:53:26.149Z,36.50
2023-04-19T16:55:56.348Z,34.90
2023-04-19T16:58:24.921Z,26.60
2023-04-19T17:00:53.032Z,24.80
2023-04-19T17:03:22.032Z,20.00
2023-04-19T17:05:50.286Z,29.00
2023-04-19T17:08:18.176Z,17.90
2023-04-19T17:10:46.167Z,19.50
2023-04-19T17:13:14.146Z,18.20
2023-04-19T17:15:42.162Z,14.30
2023-04-19T17:18:10.231Z,19.80
2023-04-19T17:20:38.212Z,24.70
2023-04-19T17:23:06.413Z,19.70
2023-04-19T17:25:34.397Z,17.10
2023-04-19T17:28:02.343Z,27.90
2023-04-19T17:30:30.559Z,24.50
2023-04-19T17:32:58.689Z,13.10
2023-04-19T17:35:27.348Z,26.50
2023-04-19T17:37:55.412Z,18.20
2023-04-19T17:40:23.457Z,22.70
2023-04-19T17:42:51.378Z,21.60
2023-04-19T17:45:19.347Z,18.20
2023-04-19T17:47:55.338Z,19.20
2023-04-19T17:50:26.408Z,20.60
2023-04-19T17:52:55.095Z,18.80
2023-04-19T17:55:23.303Z,21.30
2023-04-19T17:57:51.427Z,19.90
2023-04-19T18:00:22.661Z,18.20
2023-04-19T18:02:51.766Z,19.20
2023-04-19T18:05:19.877Z,23.60
2023-04-19T18:07:48.027Z,18.90
2023-04-19T18:10:15.936Z,20.00
2023-04-19T18:12:44.544Z,19.40
2023-04-19T18:15:12.555Z,22.40
2023-04-19T18:17:41.327Z,14.00
2023-04-19T18:20:11.212Z,16.40
2023-04-19T18:22:40.399Z,20.20
2023-04-19T18:25:08.792Z,20.40
2023-04-19T18:27:37.253Z,19.00
2023-04-19T18:30:06.558Z,21.70
2023-04-19T18:32:35.696Z,17.70
2023-04-19T18:35:08.862Z,19.40
2023-04-19T18:37:37.012Z,19.90
2023-04-19T18:40:07.265Z,17.90
2023-04-19T18:42:35.681Z,22.70
2023-04-19T18:45:04.197Z,28.00
2023-04-19T18:47:33.122Z,32.20
2023-04-19T18:50:05.930Z,23.90
2023-04-19T18:52:36.057Z,31.60
2023-04-19T18:55:07.603Z,30.80
2023-04-19T18:57:36.293Z,17.80
2023-04-19T19:00:06.533Z,30.00
2023-04-19T19:02:37.069Z,24.20
2023-04-19T19:05:07.490Z,22.70
2023-04-19T19:07:37.949Z,35.90
2023-04-19T19:10:18.428Z,32.20
2023-04-19T19:12:50.033Z,27.20
2023-04-19T19:15:18.511Z,36.70
2023-04-19T19:17:49.869Z,38.10
2023-04-19T19:20:19.611Z,35.90
2023-04-19T19:22:51.440Z,26.90
2023-04-19T19:25:19.738Z,35.00
2023-04-19T19:28:05.464Z,38.10
2023-04-19T19:30:39.769Z,37.70
2023-04-19T19:33:08.024Z,35.90
2023-04-19T19:35:36.774Z,30.60
2023-04-19T19:38:04.675Z,29.70
2023-04-19T19:40:33.229Z,24.60
2023-04-19T19:43:01.606Z,24.50
2023-04-19T19:45:33.185Z,40.50
2023-04-19T19:48:01.542Z,37.70
2023-04-19T19:55:30.392Z,38.00
2023-04-19T19:58:16.390Z,30.90
2023-04-19T20:00:50.268Z,36.60
2023-04-19T20:03:33.149Z,31.20
2023-04-19T20:06:35.651Z,25.50
2023-04-19T20:08:57.382Z,25.20
2023-04-19T20:11:25.610Z,34.20
2023-04-19T20:13:53.488Z,31.80
2023-04-19T20:16:21.612Z,37.50
2023-04-19T20:18:49.587Z,32.40
2023-04-19T20:21:18.064Z,38.90
2023-04-19T20:23:47.289Z,40.20
2023-04-19T20:26:15.497Z,32.00
2023-04-19T20:28:43.444Z,30.60
2023-04-19T20:31:11.441Z,45.10
2023-04-19T20:33:39.518Z,48.00
2023-04-19T20:36:07.748Z,43.80
2023-04-19T20:38:35.864Z,22.50
2023-04-19T20:41:03.836Z,45.40
2023-04-19T20:43:32.551Z,42.80
2023-04-19T20:46:00.646Z,34.50
2023-04-19T20:48:28.922Z,34.60
2023-04-19T20:50:56.843Z,34.40
2023-04-19T20:53:24.898Z,31.20
2023-04-19T20:55:52.790Z,38.60
2023-04-19T20:58:20.829Z,34.50
2023-04-19T21:00:49.884Z,46.90
2023-04-19T21:03:18.448Z,32.90
2023-04-19T21:05:46.449Z,31.20
2023-04-19T21:08:16.161Z,42.80
2023-04-19T21:10:44.175Z,41.50
2023-04-19T21:13:12.083Z,45.30
2023-04-19T21:15:40.017Z,41.30
2023-04-19T21:18:08.128Z,35.40
2023-04-19T21:20:36.428Z,31.00
2023-04-19T21:23:04.436Z,34.10
2023-04-19T21:25:32.362Z,34.20
2023-04-19T21:28:00.384Z,32.10
2023-04-19T21:30:29.948Z,37.70
2023-04-19T21:32:58.283Z,35.40
2023-04-19T21:35:26.421Z,46.00
2023-04-19T21:37:54.555Z,39.90
2023-04-19T21:40:22.610Z,32.50
2023-04-19T21:42:50.733Z,38.30
2023-04-19T21:45:18.736Z,53.20
2023-04-19T21:47:46.741Z,36.30
2023-04-19T21:50:14.771Z,30.50
2023-04-19T21:52:42.687Z,40.20
2023-04-19T21:55:10.678Z,34.00
2023-04-19T21:57:38.699Z,35.90
2023-04-19T22:00:09.281Z,42.00
2023-04-19T22:05:07.394Z,31.70
2023-04-19T22:07:38.236Z,33.60
2023-04-19T22:10:07.455Z,38.90
2023-04-19T22:12:40.598Z,30.80
2023-04-19T22:15:16.274Z,40.00
2023-04-19T22:17:44.634Z,23.40
2023-04-19T22:20:13.028Z,35.90
2023-04-19T22:22:41.341Z,33.60
2023-04-19T22:25:11.995Z,27.50
2023-04-19T22:27:40.314Z,32.40
2023-04-19T22:30:08.526Z,39.60
2023-04-19T22:32:37.062Z,40.90
2023-04-19T22:35:05.871Z,33.90
2023-04-19T22:37:34.196Z,30.30
2023-04-19T22:40:02.258Z,36.10
2023-04-19T22:42:30.599Z,40.50
2023-04-19T22:44:58.757Z,42.50
2023-04-19T22:47:27.205Z,27.50
2023-04-19T22:49:55.108Z,32.70
2023-04-19T22:52:23.826Z,40.60
2023-04-19T22:54:51.857Z,35.00
2023-04-19T22:57:19.864Z,34.70
2023-04-19T22:59:48.931Z,31.80
2023-04-19T23:02:16.943Z,39.30
2023-04-19T23:04:45.115Z,34.60
2023-04-19T23:07:13.447Z,34.40
2023-04-19T23:09:41.766Z,42.60
2023-04-19T23:12:11.087Z,34.80
2023-04-19T23:14:39.489Z,35.50
2023-04-19T23:17:07.578Z,36.00
2023-04-19T23:19:37.559Z,28.00
2023-04-19T23:22:05.766Z,30.40
2023-04-19T23:24:36.200Z,31.90
2023-04-19T23:27:04.719Z,36.40
2023-04-19T23:29:32.684Z,29.60
2023-04-19T23:32:01.627Z,37.20
2023-04-19T23:34:29.672Z,31.80
2023-04-19T23:36:57.710Z,36.80
2023-04-19T23:39:25.636Z,32.00
2023-04-19T23:41:53.524Z,26.00
2023-04-19T23:44:21.487Z,35.60
2023-04-19T23:46:49.441Z,28.10
2023-04-19T23:49:17.563Z,33.50
2023-04-19T23:51:47.552Z,33.80
2023-04-19T23:54:16.836Z,31.60
2023-04-19T23:56:45.521Z,33.40
2023-04-19T23:59:13.511Z,28.10
